Time;durP1;ratioP1;P1;durP2;ratioP2;P2;SDS_P1;SDS_P2;PMS_P1;PMS_P2;Temp;Humidity;BMP_temperature;BMP_pressure;BME280_temperature;BME280_humidity;BME280_pressure;Samples;Min_cycle;Max_cycle;Signal;HPM_P1;HPM_P2
2023/02/06 00:01:50;;;;;;;0.30;0.30;;;;;;;;;;5048004;28;20307;-73
2023/02/06 00:04:17;;;;;;;0.30;0.30;;;;;;;;;;5049923;28;20263;-73
2023/02/06 00:06:43;;;;;;;0.30;0.30;;;;;;;;;;5048261;28;20303;-73
2023/02/06 00:09:10;;;;;;;0.40;0.40;;;;;;;;;;5050188;28;20535;-73
2023/02/06 00:11:36;;;;;;;0.30;0.30;;;;;;;;;;5047138;28;20258;-73
2023/02/06 00:14:02;;;;;;;0.30;0.30;;;;;;;;;;5050800;28;20232;-73
2023/02/06 00:16:30;;;;;;;0.30;0.30;;;;;;;;;;5046214;28;20331;-73
2023/02/06 00:18:58;;;;;;;0.30;0.30;;;;;;;;;;5051699;28;20212;-73
2023/02/06 00:21:25;;;;;;;0.40;0.40;;;;;;;;;;5045728;28;20259;-73
2023/02/06 00:23:52;;;;;;;0.30;0.30;;;;;;;;;;5051864;28;20228;-73
2023/02/06 00:26:19;;;;;;;0.40;0.40;;;;;;;;;;5044593;28;20303;-73
2023/02/06 00:28:46;;;;;;;0.30;0.30;;;;;;;;;;5052635;28;20239;-73
2023/02/06 00:31:13;;;;;;;0.30;0.30;;;;;;;;;;5043939;28;20314;-73
2023/02/06 00:33:39;;;;;;;0.30;0.30;;;;;;;;;;5053265;28;20231;-73
2023/02/06 00:36:08;;;;;;;0.30;0.30;;;;;;;;;;5043026;28;20271;-73
2023/02/06 00:38:35;;;;;;;0.30;0.30;;;;;;;;;;5053835;28;20272;-73
2023/02/06 00:41:02;;;;;;;0.40;0.40;;;;;;;;;;5042386;28;20259;-73
2023/02/06 00:43:28;;;;;;;0.30;0.30;;;;;;;;;;5054408;28;20204;-72
2023/02/06 00:45:56;;;;;;;0.40;0.40;;;;;;;;;;5041677;28;20326;-72
2023/02/06 00:48:22;;;;;;;0.30;0.30;;;;;;;;;;5054401;28;20204;-72
2023/02/06 00:50:49;;;;;;;0.30;0.30;;;;;;;;;;5040649;28;20239;-72
2023/02/06 00:53:16;;;;;;;0.30;0.30;;;;;;;;;;5056012;28;20271;-73
2023/02/06 00:55:43;;;;;;;0.40;0.40;;;;;;;;;;5039785;28;20307;-73
2023/02/06 00:58:09;;;;;;;0.30;0.30;;;;;;;;;;5057067;28;20259;-72
2023/02/06 01:00:35;;;;;;;0.40;0.40;;;;;;;;;;5038481;28;20303;-73
2023/02/06 01:03:02;;;;;;;0.30;0.30;;;;;;;;;;5057653;28;20228;-72
2023/02/06 01:05:28;;;;;;;0.30;0.30;;;;;;;;;;5037705;28;20475;-73
2023/02/06 01:07:55;;;;;;;0.30;0.30;;;;;;;;;;5058698;28;20225;-72
2023/02/06 01:10:22;;;;;;;0.37;0.37;;;;;;;;;;5036422;28;20270;-72
2023/02/06 01:12:49;;;;;;;0.30;0.30;;;;;;;;;;5059518;28;20392;-73
2023/02/06 01:15:15;;;;;;;0.30;0.30;;;;;;;;;;5035963;28;20200;-73
2023/02/06 01:17:41;;;;;;;0.30;0.30;;;;;;;;;;5059945;28;20199;-73
2023/02/06 01:20:09;;;;;;;0.30;0.30;;;;;;;;;;5045348;28;20292;-73
2023/02/06 01:22:37;;;;;;;0.30;0.30;;;;;;;;;;5033893;28;20229;-73
2023/02/06 01:25:03;;;;;;;0.30;0.30;;;;;;;;;;5045211;28;20286;-73
2023/02/06 01:27:31;;;;;;;0.30;0.30;;;;;;;;;;5050376;28;20240;-73
2023/02/06 01:29:58;;;;;;;0.30;0.30;;;;;;;;;;5044997;28;20541;-73
2023/02/06 01:32:24;;;;;;;0.40;0.40;;;;;;;;;;5050122;28;20251;-73
2023/02/06 01:34:50;;;;;;;0.30;0.30;;;;;;;;;;5044874;28;20267;-73
2023/02/06 01:37:17;;;;;;;0.40;0.40;;;;;;;;;;5050358;28;20286;-73
2023/02/06 01:39:43;;;;;;;0.30;0.30;;;;;;;;;;5045033;28;20271;-73
2023/02/06 01:42:10;;;;;;;0.43;0.43;;;;;;;;;;5050055;28;20305;-73
2023/02/06 01:44:38;;;;;;;0.30;0.30;;;;;;;;;;5044922;28;20296;-73
2023/02/06 01:47:05;;;;;;;0.30;0.30;;;;;;;;;;5049228;28;20255;-73
2023/02/06 01:49:34;;;;;;;0.30;0.30;;;;;;;;;;5045515;28;20272;-73
2023/02/06 01:52:02;;;;;;;0.30;0.30;;;;;;;;;;5048724;28;20240;-73
2023/02/06 01:54:29;;;;;;;0.30;0.30;;;;;;;;;;5045333;28;20236;-73
2023/02/06 01:56:58;;;;;;;0.30;0.30;;;;;;;;;;5047814;28;20239;-73
2023/02/06 01:59:25;;;;;;;0.30;0.30;;;;;;;;;;5045898;28;20465;-73
2023/02/06 02:01:53;;;;;;;0.37;0.37;;;;;;;;;;5047176;28;20491;-73
2023/02/06 02:04:20;;;;;;;0.30;0.30;;;;;;;;;;5046826;28;20255;-73
2023/02/06 02:06:50;;;;;;;0.30;0.30;;;;;;;;;;5046601;28;20302;-73
2023/02/06 02:09:17;;;;;;;0.30;0.30;;;;;;;;;;5046943;28;20548;-73
2023/02/06 02:11:44;;;;;;;0.30;0.30;;;;;;;;;;5046194;28;20258;-73
2023/02/06 02:14:12;;;;;;;0.80;0.80;;;;;;;;;;5047136;28;20201;-73
2023/02/06 02:16:42;;;;;;;0.37;0.37;;;;;;;;;;5045214;28;20239;-73
2023/02/06 02:19:23;;;;;;;0.30;0.30;;;;;;;;;;5047895;28;20272;-73
2023/02/06 02:22:04;;;;;;;0.30;0.30;;;;;;;;;;5046686;28;20578;-73
2023/02/06 02:24:40;;;;;;;0.30;0.30;;;;;;;;;;5041567;28;20292;-73
2023/02/06 02:27:24;;;;;;;0.30;0.30;;;;;;;;;;5048740;28;20302;-73
2023/02/06 02:30:06;;;;;;;0.30;0.30;;;;;;;;;;5043656;28;20219;-73
2023/02/06 02:32:47;;;;;;;0.40;0.40;;;;;;;;;;5049112;28;20262;-73
2023/02/06 02:35:28;;;;;;;0.30;0.30;;;;;;;;;;5034268;28;20248;-73
2023/02/06 02:38:10;;;;;;;0.33;0.33;;;;;;;;;;5057260;28;20420;-73
2023/02/06 02:40:40;;;;;;;0.30;0.30;;;;;;;;;;5036880;28;20310;-73
2023/02/06 02:43:12;;;;;;;0.30;0.30;;;;;;;;;;5055642;28;20432;-73
2023/02/06 02:45:42;;;;;;;0.40;0.40;;;;;;;;;;5037144;28;20607;-73
2023/02/06 02:48:10;;;;;;;0.30;0.30;;;;;;;;;;5054892;28;20264;-73
2023/02/06 02:50:39;;;;;;;0.30;0.30;;;;;;;;;;5036767;28;20310;-73
2023/02/06 02:53:05;;;;;;;0.30;0.30;;;;;;;;;;5055679;28;20259;-73
2023/02/06 02:55:31;;;;;;;0.30;0.30;;;;;;;;;;5036171;28;20321;-73
2023/02/06 02:57:59;;;;;;;0.40;0.40;;;;;;;;;;5056171;28;20231;-73
2023/02/06 03:00:26;;;;;;;0.40;0.40;;;;;;;;;;5035384;28;20236;-73
2023/02/06 03:02:54;;;;;;;0.30;0.30;;;;;;;;;;5056831;28;20193;-73
2023/02/06 03:05:22;;;;;;;0.40;0.40;;;;;;;;;;5034598;28;20242;-73
2023/02/06 03:07:54;;;;;;;0.40;0.40;;;;;;;;;;5057404;28;20217;-73
2023/02/06 03:10:24;;;;;;;0.40;0.40;;;;;;;;;;5034503;28;20236;-73
2023/02/06 03:12:54;;;;;;;0.40;0.40;;;;;;;;;;5060174;28;20223;-73
2023/02/06 03:15:24;;;;;;;0.30;0.30;;;;;;;;;;5038778;28;20280;-73
2023/02/06 03:17:53;;;;;;;0.30;0.30;;;;;;;;;;5061113;28;20260;-73
2023/02/06 03:20:20;;;;;;;0.40;0.40;;;;;;;;;;5038292;28;20245;-73
2023/02/06 03:22:48;;;;;;;0.40;0.40;;;;;;;;;;5061570;28;20231;-73
2023/02/06 03:25:20;;;;;;;0.40;0.40;;;;;;;;;;5037565;28;20291;-73
2023/02/06 03:27:46;;;;;;;0.40;0.40;;;;;;;;;;5061919;28;20192;-73
2023/02/06 03:30:13;;;;;;;0.40;0.40;;;;;;;;;;5037286;28;20235;-73
2023/02/06 03:32:41;;;;;;;0.30;0.30;;;;;;;;;;5062434;28;20229;-73
2023/02/06 03:35:10;;;;;;;0.30;0.30;;;;;;;;;;5047035;28;20201;-73
2023/02/06 03:37:37;;;;;;;0.40;0.40;;;;;;;;;;5035734;28;20231;-73
2023/02/06 03:40:05;;;;;;;0.30;0.30;;;;;;;;;;5047052;28;20198;-73
2023/02/06 03:42:35;;;;;;;0.30;0.30;;;;;;;;;;5052472;28;20307;-73
2023/02/06 03:45:06;;;;;;;0.30;0.30;;;;;;;;;;5047187;28;20444;-73
2023/02/06 03:47:33;;;;;;;0.60;0.60;;;;;;;;;;5035654;28;20212;-73
2023/02/06 03:50:00;;;;;;;1.13;1.13;;;;;;;;;;5046861;28;20204;-73
2023/02/06 03:52:30;;;;;;;0.30;0.30;;;;;;;;;;5052197;28;20409;-74
2023/02/06 03:55:01;;;;;;;0.40;0.40;;;;;;;;;;5047062;28;20208;-73
2023/02/06 03:57:28;;;;;;;0.37;0.37;;;;;;;;;;5052147;28;20248;-73
2023/02/06 03:59:55;;;;;;;0.30;0.30;;;;;;;;;;5046690;28;20232;-73
2023/02/06 04:02:23;;;;;;;0.40;0.40;;;;;;;;;;5051991;28;20267;-73
2023/02/06 04:04:49;;;;;;;0.30;0.30;;;;;;;;;;5046824;28;20319;-74
2023/02/06 04:07:17;;;;;;;0.40;0.40;;;;;;;;;;5051844;28;20301;-73
2023/02/06 04:09:44;;;;;;;0.30;0.30;;;;;;;;;;5046577;28;20263;-73
2023/02/06 04:12:10;;;;;;;0.40;0.40;;;;;;;;;;5051819;28;20494;-73
2023/02/06 04:14:36;;;;;;;0.40;0.40;;;;;;;;;;5046357;28;20208;-73
2023/02/06 04:17:04;;;;;;;0.30;0.30;;;;;;;;;;5051056;28;20283;-73
2023/02/06 04:19:31;;;;;;;0.30;0.30;;;;;;;;;;5046988;28;20477;-73
2023/02/06 04:21:57;;;;;;;0.30;0.30;;;;;;;;;;5050499;28;20255;-73
2023/02/06 04:24:24;;;;;;;0.40;0.40;;;;;;;;;;5047277;28;20276;-73
2023/02/06 04:26:50;;;;;;;0.30;0.30;;;;;;;;;;5049291;28;20300;-73
2023/02/06 04:29:17;;;;;;;0.30;0.30;;;;;;;;;;5048134;28;20383;-73
2023/02/06 04:31:43;;;;;;;0.40;0.40;;;;;;;;;;5048157;28;20306;-73
2023/02/06 04:34:11;;;;;;;0.40;0.40;;;;;;;;;;5049145;28;20232;-73
2023/02/06 04:36:37;;;;;;;0.40;0.40;;;;;;;;;;5047467;28;20240;-74
2023/02/06 04:39:04;;;;;;;0.40;0.40;;;;;;;;;;5049755;28;20275;-73
2023/02/06 04:41:30;;;;;;;0.30;0.30;;;;;;;;;;5046318;28;20239;-73
2023/02/06 04:43:57;;;;;;;0.30;0.30;;;;;;;;;;5050739;28;20262;-73
2023/02/06 04:46:23;;;;;;;0.30;0.30;;;;;;;;;;5045321;28;20309;-73
2023/02/06 04:48:49;;;;;;;0.30;0.30;;;;;;;;;;5051731;28;20425;-73
2023/02/06 04:51:17;;;;;;;0.93;0.93;;;;;;;;;;5044432;28;20480;-73
2023/02/06 04:53:44;;;;;;;0.40;0.40;;;;;;;;;;5052065;28;20237;-73
2023/02/06 04:56:11;;;;;;;0.30;0.30;;;;;;;;;;5043714;28;20479;-73
2023/02/06 04:58:38;;;;;;;0.33;0.33;;;;;;;;;;5053019;28;20277;-74
2023/02/06 05:01:04;;;;;;;0.40;0.40;;;;;;;;;;5042513;28;20239;-73
2023/02/06 05:03:31;;;;;;;0.30;0.30;;;;;;;;;;5053478;28;20212;-73
2023/02/06 05:05:59;;;;;;;0.40;0.40;;;;;;;;;;5041736;28;20244;-73
2023/02/06 05:08:27;;;;;;;0.30;0.30;;;;;;;;;;5054204;28;20247;-73
2023/02/06 05:10:54;;;;;;;0.30;0.30;;;;;;;;;;5040992;28;20256;-73
2023/02/06 05:13:20;;;;;;;0.30;0.30;;;;;;;;;;5054796;28;20206;-73
2023/02/06 05:15:46;;;;;;;0.40;0.40;;;;;;;;;;5040303;28;20240;-73
2023/02/06 05:18:13;;;;;;;0.30;0.30;;;;;;;;;;5055918;28;20443;-73
2023/02/06 05:20:40;;;;;;;0.30;0.30;;;;;;;;;;5039319;28;20242;-73
2023/02/06 05:23:06;;;;;;;0.30;0.30;;;;;;;;;;5056337;28;20201;-73
2023/02/06 05:25:35;;;;;;;0.30;0.30;;;;;;;;;;5038014;28;20304;-74
2023/02/06 05:28:05;;;;;;;0.30;0.30;;;;;;;;;;5057026;28;20224;-73
2023/02/06 05:30:31;;;;;;;0.30;0.30;;;;;;;;;;5038084;28;20584;-74
2023/02/06 05:32:57;;;;;;;0.30;0.30;;;;;;;;;;5057515;28;20390;-73
2023/02/06 05:35:24;;;;;;;0.30;0.30;;;;;;;;;;5036501;28;20243;-74
2023/02/06 05:37:50;;;;;;;0.30;0.30;;;;;;;;;;5058118;28;20260;-73
2023/02/06 05:40:17;;;;;;;0.30;0.30;;;;;;;;;;5036022;28;20239;-74
2023/02/06 05:42:44;;;;;;;0.30;0.30;;;;;;;;;;5059151;28;20260;-73
2023/02/06 05:45:11;;;;;;;0.70;0.70;;;;;;;;;;5034802;28;20297;-73
2023/02/06 05:47:37;;;;;;;0.30;0.30;;;;;;;;;;5059514;28;20256;-73
2023/02/06 05:50:04;;;;;;;0.30;0.30;;;;;;;;;;5044549;28;20213;-73
2023/02/06 05:52:30;;;;;;;0.30;0.30;;;;;;;;;;5050253;28;20308;-73
2023/02/06 05:54:57;;;;;;;0.30;0.30;;;;;;;;;;5044469;28;20237;-73
2023/02/06 05:57:23;;;;;;;0.30;0.30;;;;;;;;;;5049792;28;20237;-73
2023/02/06 05:59:51;;;;;;;0.30;0.30;;;;;;;;;;5044713;28;20220;-73
2023/02/06 06:02:17;;;;;;;0.33;0.33;;;;;;;;;;5049689;28;20247;-73
2023/02/06 06:04:44;;;;;;;0.30;0.30;;;;;;;;;;5044323;28;20272;-73
2023/02/06 06:07:10;;;;;;;0.30;0.30;;;;;;;;;;5049647;28;20303;-73
2023/02/06 06:09:36;;;;;;;0.30;0.30;;;;;;;;;;5044484;28;20213;-73
2023/02/06 06:12:03;;;;;;;0.30;0.30;;;;;;;;;;5048963;28;20303;-73
2023/02/06 06:14:29;;;;;;;0.30;0.30;;;;;;;;;;5044823;28;20564;-73
2023/02/06 06:16:57;;;;;;;0.30;0.30;;;;;;;;;;5048049;28;20259;-73
2023/02/06 06:19:23;;;;;;;0.30;0.30;;;;;;;;;;5045391;28;20272;-73
2023/02/06 06:21:50;;;;;;;0.30;0.30;;;;;;;;;;5047135;28;20521;-73
2023/02/06 06:24:16;;;;;;;0.30;0.30;;;;;;;;;;5046380;28;20205;-73
2023/02/06 06:26:43;;;;;;;0.30;0.30;;;;;;;;;;5046063;28;20487;-73
2023/02/06 06:29:09;;;;;;;0.30;0.30;;;;;;;;;;5047053;28;20281;-73
2023/02/06 06:31:35;;;;;;;0.30;0.30;;;;;;;;;;5044851;28;20275;-73
2023/02/06 06:34:03;;;;;;;0.30;0.30;;;;;;;;;;5047733;28;20329;-73
2023/02/06 06:36:29;;;;;;;0.30;0.30;;;;;;;;;;5044182;28;20307;-74
2023/02/06 06:38:56;;;;;;;0.30;0.30;;;;;;;;;;5048817;28;20478;-73
2023/02/06 06:41:22;;;;;;;0.30;0.30;;;;;;;;;;5043340;28;20252;-74
2023/02/06 06:43:48;;;;;;;0.30;0.30;;;;;;;;;;5049347;28;20271;-73
2023/02/06 06:46:15;;;;;;;0.30;0.30;;;;;;;;;;5041421;28;20236;-73
2023/02/06 06:48:41;;;;;;;0.30;0.30;;;;;;;;;;5050450;28;20273;-73
2023/02/06 06:51:09;;;;;;;0.30;0.30;;;;;;;;;;5041300;28;20313;-73
2023/02/06 06:53:38;;;;;;;0.30;0.30;;;;;;;;;;5051063;28;20245;-73
2023/02/06 06:56:05;;;;;;;0.30;0.30;;;;;;;;;;5040900;28;20242;-74
2023/02/06 06:58:32;;;;;;;0.30;0.30;;;;;;;;;;5051351;28;20211;-73
2023/02/06 07:00:58;;;;;;;0.30;0.30;;;;;;;;;;5040013;28;20240;-73
2023/02/06 07:03:24;;;;;;;0.30;0.30;;;;;;;;;;5052571;28;20556;-73
2023/02/06 07:05:51;;;;;;;0.30;0.30;;;;;;;;;;5038958;28;20272;-73
2023/02/06 07:08:18;;;;;;;0.30;0.30;;;;;;;;;;5053114;28;20272;-73
2023/02/06 07:10:45;;;;;;;0.30;0.30;;;;;;;;;;5038049;28;20298;-73
2023/02/06 07:13:11;;;;;;;0.20;0.20;;;;;;;;;;5054192;28;20264;-74
2023/02/06 07:15:37;;;;;;;0.30;0.30;;;;;;;;;;5037197;28;20305;-73
2023/02/06 07:18:04;;;;;;;0.30;0.30;;;;;;;;;;5054787;28;20212;-73
2023/02/06 07:20:30;;;;;;;0.30;0.30;;;;;;;;;;5036140;28;20247;-73
2023/02/06 07:22:57;;;;;;;0.30;0.30;;;;;;;;;;5055726;28;20262;-73
2023/02/06 07:25:24;;;;;;;0.30;0.30;;;;;;;;;;5035097;28;20228;-74
2023/02/06 07:27:51;;;;;;;0.30;0.30;;;;;;;;;;5056771;28;20287;-73
2023/02/06 07:30:17;;;;;;;0.30;0.30;;;;;;;;;;5034221;28;20286;-73
2023/02/06 07:32:44;;;;;;;0.30;0.30;;;;;;;;;;5057482;28;20421;-73
2023/02/06 07:35:10;;;;;;;0.30;0.30;;;;;;;;;;5033719;28;20556;-74
2023/02/06 07:37:37;;;;;;;0.30;0.30;;;;;;;;;;5058581;28;20198;-75
2023/02/06 07:40:04;;;;;;;0.30;0.30;;;;;;;;;;5043272;28;20211;-73
2023/02/06 07:42:32;;;;;;;0.30;0.30;;;;;;;;;;5048578;28;20267;-73
2023/02/06 07:45:07;;;;;;;0.30;0.30;;;;;;;;;;5043260;28;20197;-71
2023/02/06 07:47:35;;;;;;;0.30;0.30;;;;;;;;;;5047902;28;20242;-72
2023/02/06 07:50:03;;;;;;;0.23;0.23;;;;;;;;;;5043058;28;20212;-73
2023/02/06 07:52:29;;;;;;;0.20;0.20;;;;;;;;;;5048483;28;20250;-72
2023/02/06 07:54:55;;;;;;;0.30;0.30;;;;;;;;;;5043394;28;20206;-73
2023/02/06 07:57:22;;;;;;;0.30;0.30;;;;;;;;;;5048956;28;20303;-73
2023/02/06 07:59:50;;;;;;;0.30;0.30;;;;;;;;;;5046809;28;20213;-73
2023/02/06 08:02:16;;;;;;;0.30;0.30;;;;;;;;;;5051987;28;20243;-74
2023/02/06 08:04:42;;;;;;;0.30;0.30;;;;;;;;;;5046749;28;20213;-74
2023/02/06 08:07:13;;;;;;;0.30;0.30;;;;;;;;;;5052003;28;20247;-74
2023/02/06 08:09:40;;;;;;;0.30;0.30;;;;;;;;;;5046688;28;20200;-74
2023/02/06 08:12:06;;;;;;;0.30;0.30;;;;;;;;;;5051822;28;20307;-74
2023/02/06 08:14:32;;;;;;;0.30;0.30;;;;;;;;;;5046567;28;20204;-74
2023/02/06 08:17:00;;;;;;;0.30;0.30;;;;;;;;;;5050833;28;20321;-74
2023/02/06 08:19:27;;;;;;;0.30;0.30;;;;;;;;;;5047678;28;20454;-74
2023/02/06 08:21:53;;;;;;;0.30;0.30;;;;;;;;;;5049794;28;20264;-73
2023/02/06 08:24:19;;;;;;;0.30;0.30;;;;;;;;;;5048106;28;20272;-74
2023/02/06 08:26:46;;;;;;;0.30;0.30;;;;;;;;;;5048760;28;20294;-74
2023/02/06 08:29:13;;;;;;;0.30;0.30;;;;;;;;;;5048986;28;20227;-74
2023/02/06 08:31:40;;;;;;;0.30;0.30;;;;;;;;;;5047669;28;20244;-74
2023/02/06 08:34:10;;;;;;;0.30;0.30;;;;;;;;;;5049915;28;20279;-74
2023/02/06 08:36:36;;;;;;;0.30;0.30;;;;;;;;;;5047444;28;20248;-74
2023/02/06 08:39:04;;;;;;;0.30;0.30;;;;;;;;;;5050049;28;20238;-74
2023/02/06 08:41:31;;;;;;;0.30;0.30;;;;;;;;;;5046610;28;20454;-74
2023/02/06 08:44:01;;;;;;;0.30;0.30;;;;;;;;;;5050422;28;20274;-74
2023/02/06 08:46:29;;;;;;;0.30;0.30;;;;;;;;;;5045227;28;20242;-74
2023/02/06 08:48:56;;;;;;;0.30;0.30;;;;;;;;;;5051677;28;20234;-74
2023/02/06 08:51:26;;;;;;;0.20;0.20;;;;;;;;;;5045376;28;20597;-74
2023/02/06 08:53:53;;;;;;;0.30;0.30;;;;;;;;;;5051275;28;20449;-73
2023/02/06 08:56:19;;;;;;;0.30;0.30;;;;;;;;;;5044769;28;20240;-74
2023/02/06 08:58:46;;;;;;;0.50;0.50;;;;;;;;;;5051976;28;20280;-74
2023/02/06 09:01:13;;;;;;;0.27;0.27;;;;;;;;;;5043734;28;20257;-74
2023/02/06 09:03:40;;;;;;;0.30;0.30;;;;;;;;;;5052647;28;20207;-73
2023/02/06 09:06:07;;;;;;;0.27;0.27;;;;;;;;;;5042708;28;20258;-74
2023/02/06 09:08:35;;;;;;;0.30;0.30;;;;;;;;;;5053008;28;20456;-74
2023/02/06 09:11:05;;;;;;;0.30;0.30;;;;;;;;;;5041589;28;20360;-74
2023/02/06 09:13:31;;;;;;;0.30;0.30;;;;;;;;;;5053624;28;20266;-74
2023/02/06 09:15:58;;;;;;;0.30;0.30;;;;;;;;;;5041541;28;20554;-74
2023/02/06 09:18:24;;;;;;;0.30;0.30;;;;;;;;;;5054402;28;20228;-74
2023/02/06 09:20:51;;;;;;;0.30;0.30;;;;;;;;;;5040565;28;20311;-74
2023/02/06 09:23:18;;;;;;;0.30;0.30;;;;;;;;;;5054927;28;20207;-74
2023/02/06 09:25:45;;;;;;;0.30;0.30;;;;;;;;;;5039545;28;20295;-74
2023/02/06 09:28:12;;;;;;;0.30;0.30;;;;;;;;;;5055712;28;20244;-74
2023/02/06 09:30:38;;;;;;;0.30;0.30;;;;;;;;;;5038952;28;20613;-74
2023/02/06 09:33:05;;;;;;;0.30;0.30;;;;;;;;;;5056304;28;20241;-74
2023/02/06 09:35:31;;;;;;;0.30;0.30;;;;;;;;;;5037953;28;20259;-74
2023/02/06 09:37:58;;;;;;;0.30;0.30;;;;;;;;;;5057216;28;20203;-74
2023/02/06 09:40:25;;;;;;;0.30;0.30;;;;;;;;;;5036780;28;20237;-74
2023/02/06 09:42:54;;;;;;;0.20;0.20;;;;;;;;;;5057850;28;20201;-74
2023/02/06 09:45:23;;;;;;;0.20;0.20;;;;;;;;;;5036085;28;20252;-74
2023/02/06 09:47:50;;;;;;;0.23;0.23;;;;;;;;;;5058344;28;20222;-74
2023/02/06 09:50:21;;;;;;;0.30;0.30;;;;;;;;;;5035601;28;20241;-74
2023/02/06 09:52:52;;;;;;;0.20;0.20;;;;;;;;;;5058165;28;20235;-74
2023/02/06 09:55:23;;;;;;;0.20;0.20;;;;;;;;;;5036058;28;20261;-74
2023/02/06 09:57:54;;;;;;;0.20;0.20;;;;;;;;;;5058109;28;20269;-74
2023/02/06 10:00:28;;;;;;;0.30;0.30;;;;;;;;;;5036209;28;20256;-74
2023/02/06 10:03:02;;;;;;;0.20;0.20;;;;;;;;;;5057504;28;20553;-74
2023/02/06 10:05:35;;;;;;;0.30;0.30;;;;;;;;;;5037200;28;20317;-74
2023/02/06 10:08:07;;;;;;;0.23;0.23;;;;;;;;;;5056351;28;20252;-74
2023/02/06 10:10:36;;;;;;;0.30;0.30;;;;;;;;;;5037495;28;20240;-74
2023/02/06 10:13:05;;;;;;;0.20;0.20;;;;;;;;;;5055994;28;20194;-74
2023/02/06 10:15:35;;;;;;;0.20;0.20;;;;;;;;;;5037000;28;20251;-74
2023/02/06 10:18:05;;;;;;;0.30;0.30;;;;;;;;;;5056056;28;20221;-74
2023/02/06 10:20:33;;;;;;;0.30;0.30;;;;;;;;;;5037140;28;20343;-73
2023/02/06 10:23:07;;;;;;;0.27;0.27;;;;;;;;;;5056063;28;20222;-74
2023/02/06 10:25:35;;;;;;;0.30;0.30;;;;;;;;;;5037555;28;20264;-74
2023/02/06 10:28:07;;;;;;;0.30;0.30;;;;;;;;;;5055896;28;20264;-73
2023/02/06 10:30:53;;;;;;;0.20;0.20;;;;;;;;;;5037079;28;20263;-73
2023/02/06 10:33:24;;;;;;;0.20;0.20;;;;;;;;;;5053511;28;20207;-74
2023/02/06 10:35:54;;;;;;;0.30;0.30;;;;;;;;;;5039269;28;20248;-73
2023/02/06 10:38:31;;;;;;;0.30;0.30;;;;;;;;;;5053359;28;20190;-73
2023/02/06 10:41:01;;;;;;;0.20;0.20;;;;;;;;;;5039971;28;20252;-74
2023/02/06 10:43:33;;;;;;;0.27;0.27;;;;;;;;;;5052068;28;20232;-74
2023/02/06 10:46:07;;;;;;;0.30;0.30;;;;;;;;;;5040290;28;20259;-74
2023/02/06 10:48:36;;;;;;;0.20;0.20;;;;;;;;;;5051543;28;20299;-74
2023/02/06 10:51:07;;;;;;;0.20;0.20;;;;;;;;;;5040592;28;20245;-74
2023/02/06 10:53:34;;;;;;;0.30;0.30;;;;;;;;;;5051538;28;20224;-74
2023/02/06 10:56:03;;;;;;;0.20;0.20;;;;;;;;;;5040294;28;20249;-73
2023/02/06 10:58:31;;;;;;;0.27;0.27;;;;;;;;;;5051967;28;20206;-73
2023/02/06 11:00:59;;;;;;;0.27;0.27;;;;;;;;;;5039821;28;20586;-73
2023/02/06 11:03:29;;;;;;;0.30;0.30;;;;;;;;;;5052485;28;20273;-73
2023/02/06 11:05:56;;;;;;;0.30;0.30;;;;;;;;;;5039728;28;20571;-74
2023/02/06 11:08:25;;;;;;;0.20;0.20;;;;;;;;;;5052682;28;20257;-74
2023/02/06 11:10:51;;;;;;;0.30;0.30;;;;;;;;;;5039099;28;20264;-73
2023/02/06 11:13:21;;;;;;;0.30;0.30;;;;;;;;;;5053322;28;20238;-73
2023/02/06 11:15:56;;;;;;;0.30;0.30;;;;;;;;;;5038464;28;20631;-73
2023/02/06 11:18:24;;;;;;;0.23;0.23;;;;;;;;;;5052446;28;20202;-74
2023/02/06 11:20:52;;;;;;;0.20;0.20;;;;;;;;;;5038873;28;20302;-70
2023/02/06 11:23:19;;;;;;;0.20;0.20;;;;;;;;;;5052997;28;20530;-71
2023/02/06 11:25:47;;;;;;;0.20;0.20;;;;;;;;;;5038080;28;20252;-71
2023/02/06 11:28:15;;;;;;;0.20;0.20;;;;;;;;;;5053417;28;20256;-71
2023/02/06 11:30:43;;;;;;;0.20;0.20;;;;;;;;;;5037429;28;20259;-70
2023/02/06 11:33:27;;;;;;;0.27;0.27;;;;;;;;;;5056145;28;20356;-70
2023/02/06 11:35:57;;;;;;;0.20;0.20;;;;;;;;;;5042969;28;20273;-71
2023/02/06 11:38:26;;;;;;;0.20;0.20;;;;;;;;;;5056256;28;20206;-71
2023/02/06 11:40:59;;;;;;;0.20;0.20;;;;;;;;;;5042617;28;20248;-70
2023/02/06 11:43:26;;;;;;;0.20;0.20;;;;;;;;;;5055902;28;20512;-71
2023/02/06 11:46:05;;;;;;;0.20;0.20;;;;;;;;;;5042564;28;20239;-71
2023/02/06 11:48:33;;;;;;;0.20;0.20;;;;;;;;;;5055120;28;20214;-71
2023/02/06 11:51:01;;;;;;;0.20;0.20;;;;;;;;;;5043668;28;20565;-71
2023/02/06 11:53:27;;;;;;;0.20;0.20;;;;;;;;;;5055359;28;20244;-71
2023/02/06 11:56:01;;;;;;;0.20;0.20;;;;;;;;;;5042724;28;20311;-71
2023/02/06 11:58:28;;;;;;;0.20;0.20;;;;;;;;;;5055486;28;20508;-71
2023/02/06 12:00:57;;;;;;;0.20;0.20;;;;;;;;;;5042571;28;20318;-72
2023/02/06 12:03:29;;;;;;;0.20;0.20;;;;;;;;;;5056168;28;20273;-71
2023/02/06 12:05:56;;;;;;;0.30;0.30;;;;;;;;;;5042829;28;20241;-71
2023/02/06 12:08:25;;;;;;;0.30;0.30;;;;;;;;;;5055777;28;20263;-71
2023/02/06 12:10:55;;;;;;;0.20;0.20;;;;;;;;;;5042173;28;20308;-71
2023/02/06 12:13:24;;;;;;;0.30;0.30;;;;;;;;;;5055823;28;20486;-71
2023/02/06 12:15:52;;;;;;;0.27;0.27;;;;;;;;;;5041687;28;20253;-72
2023/02/06 12:18:21;;;;;;;0.30;0.30;;;;;;;;;;5056249;28;20207;-71
2023/02/06 12:20:49;;;;;;;0.30;0.30;;;;;;;;;;5041298;28;20265;-72
2023/02/06 12:23:18;;;;;;;0.30;0.30;;;;;;;;;;5056410;28;20206;-74
2023/02/06 12:25:48;;;;;;;0.20;0.20;;;;;;;;;;5040906;28;20299;-66
2023/02/06 12:28:16;;;;;;;0.30;0.30;;;;;;;;;;5056214;28;20265;-68
2023/02/06 12:30:45;;;;;;;0.20;0.20;;;;;;;;;;5040485;28;20244;-68
2023/02/06 12:33:13;;;;;;;0.20;0.20;;;;;;;;;;5056752;28;20237;-68
2023/02/06 12:35:43;;;;;;;0.30;0.30;;;;;;;;;;5040108;28;20245;-71
2023/02/06 12:38:13;;;;;;;0.30;0.30;;;;;;;;;;5056743;28;20273;-70
2023/02/06 12:40:45;;;;;;;0.20;0.20;;;;;;;;;;5040456;28;20243;-69
2023/02/06 12:43:15;;;;;;;0.20;0.20;;;;;;;;;;5056486;28;20538;-68
2023/02/06 12:45:45;;;;;;;0.20;0.20;;;;;;;;;;5039009;28;20243;-68
2023/02/06 12:48:14;;;;;;;0.30;0.30;;;;;;;;;;5056630;28;20223;-68
2023/02/06 12:50:44;;;;;;;0.20;0.20;;;;;;;;;;5040076;28;20568;-69
2023/02/06 12:53:13;;;;;;;0.23;0.23;;;;;;;;;;5056509;28;20198;-68
2023/02/06 12:55:42;;;;;;;0.20;0.20;;;;;;;;;;5039745;28;20564;-69
2023/02/06 12:58:23;;;;;;;0.30;0.30;;;;;;;;;;5056513;28;20234;-68
2023/02/06 13:00:54;;;;;;;0.30;0.30;;;;;;;;;;5041019;28;20245;-70
2023/02/06 13:03:27;;;;;;;0.30;0.30;;;;;;;;;;5055045;28;20182;-70
2023/02/06 13:05:54;;;;;;;0.20;0.20;;;;;;;;;;5041445;28;20439;-69
2023/02/06 13:08:23;;;;;;;0.30;0.30;;;;;;;;;;5054569;28;20233;-69
2023/02/06 13:10:59;;;;;;;0.20;0.20;;;;;;;;;;5040828;28;20240;-69
2023/02/06 13:13:30;;;;;;;0.30;0.30;;;;;;;;;;5054461;28;20192;-68
2023/02/06 13:15:59;;;;;;;0.20;0.20;;;;;;;;;;5041239;28;20251;-69
2023/02/06 13:18:36;;;;;;;0.27;0.27;;;;;;;;;;5054453;28;20200;-69
2023/02/06 13:21:15;;;;;;;0.30;0.30;;;;;;;;;;5042406;28;20493;-69
2023/02/06 13:23:48;;;;;;;0.30;0.30;;;;;;;;;;5051867;28;20408;-69
2023/02/06 13:26:15;;;;;;;0.20;0.20;;;;;;;;;;5043572;28;20241;-69
2023/02/06 13:28:45;;;;;;;0.30;0.30;;;;;;;;;;5051832;28;20271;-69
2023/02/06 13:31:22;;;;;;;0.27;0.27;;;;;;;;;;5043090;28;20255;-69
2023/02/06 13:33:51;;;;;;;2.77;2.47;;;;;;;;;;5050983;28;20271;-69
2023/02/06 13:36:18;;;;;;;0.20;0.20;;;;;;;;;;5043853;28;20481;-68
2023/02/06 13:38:44;;;;;;;0.30;0.30;;;;;;;;;;5051568;28;20229;-68
2023/02/06 13:41:17;;;;;;;0.20;0.20;;;;;;;;;;5042818;28;20308;-68
2023/02/06 13:43:47;;;;;;;0.30;0.30;;;;;;;;;;5051486;28;20395;-69
2023/02/06 13:46:14;;;;;;;0.20;0.20;;;;;;;;;;5042794;28;20252;-69
2023/02/06 13:49:00;;;;;;;0.20;0.20;;;;;;;;;;5051538;28;20233;-68
2023/02/06 13:51:37;;;;;;;0.30;0.30;;;;;;;;;;5044618;28;20307;-69
2023/02/06 13:54:21;;;;;;;0.20;0.20;;;;;;;;;;5048690;28;20232;-68
2023/02/06 13:57:09;;;;;;;0.20;0.20;;;;;;;;;;5046974;28;20244;-69
2023/02/06 13:59:39;;;;;;;5.40;5.20;;;;;;;;;;5041109;28;20229;-68
2023/02/06 14:02:10;;;;;;;0.20;0.20;;;;;;;;;;5049424;28;20260;-69
2023/02/06 14:04:37;;;;;;;0.20;0.20;;;;;;;;;;5044828;28;20194;-69
2023/02/06 14:07:11;;;;;;;0.20;0.20;;;;;;;;;;5049261;28;20546;-69
2023/02/06 14:09:58;;;;;;;0.27;0.27;;;;;;;;;;5044615;28;20280;-69
2023/02/06 14:12:34;;;;;;;0.30;0.30;;;;;;;;;;5047255;28;20318;-69
2023/02/06 14:15:17;;;;;;;0.20;0.20;;;;;;;;;;5044524;28;20363;-69
2023/02/06 14:17:51;;;;;;;0.20;0.20;;;;;;;;;;5043811;28;20309;-68
2023/02/06 14:20:24;;;;;;;0.30;0.30;;;;;;;;;;5035484;28;20224;-69
2023/02/06 14:22:56;;;;;;;0.30;0.30;;;;;;;;;;5057408;28;20225;-68
2023/02/06 14:25:31;;;;;;;0.20;0.20;;;;;;;;;;5036287;28;20304;-68
2023/02/06 14:28:02;;;;;;;0.27;0.27;;;;;;;;;;5056389;28;20296;-67
2023/02/06 14:30:33;;;;;;;0.27;0.27;;;;;;;;;;5036373;28;20241;-67
2023/02/06 14:33:07;;;;;;;0.20;0.20;;;;;;;;;;5056444;28;20389;-68
2023/02/06 14:35:44;;;;;;;0.20;0.20;;;;;;;;;;5037244;28;20301;-67
2023/02/06 14:38:22;;;;;;;0.23;0.23;;;;;;;;;;5055019;28;20205;-68
2023/02/06 14:40:49;;;;;;;0.30;0.30;;;;;;;;;;5038671;28;20239;-67
2023/02/06 14:43:17;;;;;;;0.20;0.20;;;;;;;;;;5054091;28;20237;-68
2023/02/06 14:45:48;;;;;;;0.20;0.20;;;;;;;;;;5038541;28;20500;-67
2023/02/06 14:48:18;;;;;;;0.27;0.27;;;;;;;;;;5054512;28;20236;-67
2023/02/06 14:50:48;;;;;;;0.30;0.30;;;;;;;;;;5038309;28;20319;-67
2023/02/06 14:53:17;;;;;;;0.30;0.30;;;;;;;;;;5053888;28;20220;-67